Time;durP1;ratioP1;P1;durP2;ratioP2;P2;SDS_P1;SDS_P2;PMS_P1;PMS_P2;Temp;Humidity;BMP_temperature;BMP_pressure;BME280_temperature;BME280_humidity;BME280_pressure;Samples;Min_cycle;Max_cycle;Signal;HPM_P1;HPM_P2
2022/11/27 00:01:14;;;;;;;59.53;20.43;;;;;;;;;;5056817;28;20537;-41
2022/11/27 00:03:42;;;;;;;56.03;19.73;;;;;;;;;;5056680;28;20185;-41
2022/11/27 00:06:15;;;;;;;60.80;20.37;;;;;;;;;;5056357;28;20629;-40
2022/11/27 00:08:42;;;;;;;54.50;20.47;;;;;;;;;;5057031;28;20218;-40
2022/11/27 00:11:12;;;;;;;56.97;20.57;;;;;;;;;;5056714;28;20239;-41
2022/11/27 00:13:39;;;;;;;52.77;18.37;;;;;;;;;;5056411;28;20211;-41
2022/11/27 00:16:07;;;;;;;61.93;20.67;;;;;;;;;;5055403;28;20571;-40
2022/11/27 00:18:34;;;;;;;57.67;20.83;;;;;;;;;;5057141;28;20285;-40
2022/11/27 00:21:07;;;;;;;56.03;19.37;;;;;;;;;;5056382;28;20637;-40
2022/11/27 00:23:34;;;;;;;56.27;19.37;;;;;;;;;;5056084;28;20215;-40
2022/11/27 00:26:01;;;;;;;59.43;20.53;;;;;;;;;;5055769;28;20204;-40
2022/11/27 00:28:28;;;;;;;54.03;18.97;;;;;;;;;;5056421;28;20204;-40
2022/11/27 00:30:59;;;;;;;53.63;20.07;;;;;;;;;;5055597;28;20653;-40
2022/11/27 00:33:27;;;;;;;46.60;19.00;;;;;;;;;;5056084;28;20206;-41
2022/11/27 00:35:54;;;;;;;49.30;19.27;;;;;;;;;;5056426;28;20203;-40
2022/11/27 00:38:21;;;;;;;55.63;19.87;;;;;;;;;;5056085;28;20222;-40
2022/11/27 00:40:48;;;;;;;51.13;19.13;;;;;;;;;;5055923;28;20219;-41
2022/11/27 00:43:15;;;;;;;50.03;20.10;;;;;;;;;;5055941;28;20367;-41
2022/11/27 00:45:42;;;;;;;52.10;20.00;;;;;;;;;;5056138;28;20219;-41
2022/11/27 00:48:09;;;;;;;51.30;19.23;;;;;;;;;;5056261;28;20204;-41
2022/11/27 00:50:36;;;;;;;46.03;18.03;;;;;;;;;;5055475;28;20243;-41
2022/11/27 00:53:02;;;;;;;51.03;18.40;;;;;;;;;;5055869;28;20207;-40
2022/11/27 00:55:30;;;;;;;43.60;18.57;;;;;;;;;;5055806;28;20204;-40
2022/11/27 00:57:56;;;;;;;45.80;17.90;;;;;;;;;;5055616;28;20511;-41
2022/11/27 01:00:23;;;;;;;47.53;18.00;;;;;;;;;;5055600;28;20203;-40
2022/11/27 01:02:50;;;;;;;46.63;18.17;;;;;;;;;;5055311;28;20273;-40
2022/11/27 01:05:17;;;;;;;48.23;18.30;;;;;;;;;;5055462;28;20199;-41
2022/11/27 01:07:44;;;;;;;49.87;19.63;;;;;;;;;;5055516;28;20243;-40
2022/11/27 01:10:11;;;;;;;44.87;19.27;;;;;;;;;;5055193;28;20584;-40
2022/11/27 01:12:38;;;;;;;47.07;20.27;;;;;;;;;;5055055;28;20232;-40
2022/11/27 01:15:06;;;;;;;47.27;18.87;;;;;;;;;;5055411;28;20208;-40
2022/11/27 01:17:33;;;;;;;50.00;18.40;;;;;;;;;;5055437;28;20305;-40
2022/11/27 01:20:00;;;;;;;47.50;19.33;;;;;;;;;;5055017;28;20208;-40
2022/11/27 01:22:26;;;;;;;43.70;17.73;;;;;;;;;;5055114;28;20641;-40
2022/11/27 01:24:53;;;;;;;51.87;20.20;;;;;;;;;;5054992;28;20211;-40
2022/11/27 01:27:20;;;;;;;45.47;18.57;;;;;;;;;;5054839;28;20200;-41
2022/11/27 01:29:47;;;;;;;43.83;19.60;;;;;;;;;;5054861;28;20699;-41
2022/11/27 01:32:14;;;;;;;43.87;18.90;;;;;;;;;;5055495;28;20255;-41
2022/11/27 01:34:41;;;;;;;43.80;18.77;;;;;;;;;;5055212;28;20211;-41
2022/11/27 01:37:08;;;;;;;40.57;18.90;;;;;;;;;;5054100;28;20231;-40
2022/11/27 01:39:35;;;;;;;45.30;19.23;;;;;;;;;;5054928;28;20204;-41
2022/11/27 01:42:02;;;;;;;43.83;18.23;;;;;;;;;;5054995;28;20208;-41
2022/11/27 01:44:32;;;;;;;51.10;19.57;;;;;;;;;;5054991;28;20207;-40
2022/11/27 01:47:06;;;;;;;44.33;19.27;;;;;;;;;;5054728;28;20200;-41
2022/11/27 01:49:38;;;;;;;48.97;20.20;;;;;;;;;;5054339;28;20214;-40
2022/11/27 01:52:12;;;;;;;40.17;18.07;;;;;;;;;;5050480;28;20222;-42
2022/11/27 01:54:44;;;;;;;45.73;18.40;;;;;;;;;;5052986;28;20207;-42
2022/11/27 01:57:21;;;;;;;44.43;19.33;;;;;;;;;;5052260;28;20227;-41
2022/11/27 01:59:50;;;;;;;46.27;19.23;;;;;;;;;;5052891;28;20633;-41
2022/11/27 02:02:17;;;;;;;48.27;19.43;;;;;;;;;;5053676;28;20211;-41
2022/11/27 02:04:44;;;;;;;43.53;19.03;;;;;;;;;;5053524;28;20208;-41
2022/11/27 02:07:11;;;;;;;44.00;19.37;;;;;;;;;;5054297;28;20206;-41
2022/11/27 02:09:39;;;;;;;46.13;18.70;;;;;;;;;;5054728;28;20211;-40
2022/11/27 02:12:23;;;;;;;40.03;17.77;;;;;;;;;;5053608;28;20408;-40
2022/11/27 02:14:53;;;;;;;43.50;18.70;;;;;;;;;;5046781;28;20345;-41
2022/11/27 02:17:43;;;;;;;41.47;17.93;;;;;;;;;;5054361;28;20218;-40
2022/11/27 02:20:20;;;;;;;38.53;16.93;;;;;;;;;;5054706;28;20200;-41
2022/11/27 02:23:15;;;;;;;43.43;19.13;;;;;;;;;;5054531;28;20208;-40
2022/11/27 02:26:06;;;;;;;37.53;16.67;;;;;;;;;;5054640;28;20275;-41
2022/11/27 02:28:59;;;;;;;37.17;17.27;;;;;;;;;;5053411;28;20196;-41
2022/11/27 02:31:46;;;;;;;40.83;18.07;;;;;;;;;;5053599;28;20212;-41
2022/11/27 02:34:25;;;;;;;40.63;17.40;;;;;;;;;;5052461;28;20231;-41
2022/11/27 02:37:08;;;;;;;44.83;17.97;;;;;;;;;;5054677;28;20203;-41
2022/11/27 02:39:52;;;;;;;39.43;17.97;;;;;;;;;;5054287;28;20257;-41
2022/11/27 02:42:19;;;;;;;46.47;18.30;;;;;;;;;;5053335;28;20212;-40
2022/11/27 02:44:52;;;;;;;42.37;17.60;;;;;;;;;;5054142;28;20274;-41
2022/11/27 02:47:20;;;;;;;36.63;16.43;;;;;;;;;;5053380;28;20204;-41
2022/11/27 02:49:48;;;;;;;42.67;18.00;;;;;;;;;;5056936;28;20226;-41
2022/11/27 02:52:16;;;;;;;45.53;18.97;;;;;;;;;;5057989;28;20227;-41
2022/11/27 02:54:45;;;;;;;40.50;17.63;;;;;;;;;;5056864;28;20226;-41
2022/11/27 02:57:13;;;;;;;44.40;17.83;;;;;;;;;;5057918;28;20200;-41
2022/11/27 02:59:41;;;;;;;39.23;17.83;;;;;;;;;;5056934;28;20203;-40
2022/11/27 03:02:13;;;;;;;43.90;19.30;;;;;;;;;;5056902;28;20212;-40
2022/11/27 03:04:45;;;;;;;43.70;18.33;;;;;;;;;;5056850;28;20211;-41
2022/11/27 03:07:17;;;;;;;44.80;18.43;;;;;;;;;;5056885;28;20203;-41
2022/11/27 03:09:48;;;;;;;48.73;18.70;;;;;;;;;;5045853;28;20208;-41
2022/11/27 03:12:16;;;;;;;43.47;17.97;;;;;;;;;;5036653;28;20219;-41
2022/11/27 03:14:44;;;;;;;45.27;18.50;;;;;;;;;;5036608;28;20208;-40
2022/11/27 03:17:31;;;;;;;48.30;19.67;;;;;;;;;;5037560;28;20219;-40
2022/11/27 03:20:13;;;;;;;46.60;18.13;;;;;;;;;;5037966;28;20270;-41
2022/11/27 03:22:41;;;;;;;44.67;18.73;;;;;;;;;;5038105;28;20204;-41
2022/11/27 03:25:07;;;;;;;46.50;19.17;;;;;;;;;;5036645;28;20307;-41
2022/11/27 03:27:42;;;;;;;49.80;18.57;;;;;;;;;;5036324;28;20208;-41
2022/11/27 03:30:09;;;;;;;50.60;18.83;;;;;;;;;;5036426;28;20274;-41
2022/11/27 03:32:37;;;;;;;53.40;19.67;;;;;;;;;;5037361;28;20233;-41
2022/11/27 03:35:07;;;;;;;48.73;19.83;;;;;;;;;;5037099;28;20638;-41
2022/11/27 03:37:35;;;;;;;50.57;19.23;;;;;;;;;;5037697;28;20180;-40
2022/11/27 03:40:05;;;;;;;48.73;19.90;;;;;;;;;;5037059;28;20207;-41
2022/11/27 03:42:39;;;;;;;50.43;19.17;;;;;;;;;;5036161;28;20212;-41
2022/11/27 03:45:28;;;;;;;50.47;18.93;;;;;;;;;;5036116;28;20205;-41
2022/11/27 03:48:17;;;;;;;55.60;20.10;;;;;;;;;;5036845;28;20209;-40
2022/11/27 03:50:57;;;;;;;50.93;19.33;;;;;;;;;;5036628;28;20239;-42
2022/11/27 03:53:46;;;;;;;47.13;18.80;;;;;;;;;;5036003;28;20204;-41
2022/11/27 03:56:26;;;;;;;52.90;20.07;;;;;;;;;;5036877;28;20207;-43
2022/11/27 03:58:53;;;;;;;49.10;18.77;;;;;;;;;;5035610;28;20263;-41
2022/11/27 04:01:22;;;;;;;49.97;19.40;;;;;;;;;;5036210;28;20633;-41
2022/11/27 04:03:49;;;;;;;46.87;19.37;;;;;;;;;;5035630;28;20213;-41
2022/11/27 04:06:16;;;;;;;52.40;20.00;;;;;;;;;;5036561;28;20204;-40
2022/11/27 04:08:45;;;;;;;50.70;18.93;;;;;;;;;;5036442;28;20629;-43
2022/11/27 04:11:13;;;;;;;52.60;19.60;;;;;;;;;;5036615;28;20294;-40
2022/11/27 04:13:40;;;;;;;45.57;19.20;;;;;;;;;;5036321;28;20212;-42
2022/11/27 04:16:07;;;;;;;46.57;18.73;;;;;;;;;;5037549;28;20273;-41
2022/11/27 04:18:34;;;;;;;44.00;19.10;;;;;;;;;;5036834;28;20204;-41
2022/11/27 04:21:02;;;;;;;44.60;17.37;;;;;;;;;;5037086;28;20200;-41
2022/11/27 04:23:29;;;;;;;51.07;20.13;;;;;;;;;;5036490;28;20216;-41
2022/11/27 04:25:56;;;;;;;44.73;19.27;;;;;;;;;;5036231;28;20251;-41
2022/11/27 04:28:23;;;;;;;49.17;18.27;;;;;;;;;;5036334;28;20224;-41
2022/11/27 04:30:51;;;;;;;44.80;18.93;;;;;;;;;;5036044;28;20591;-41
2022/11/27 04:33:19;;;;;;;43.27;18.10;;;;;;;;;;5036164;28;20255;-41
2022/11/27 04:35:45;;;;;;;48.90;19.33;;;;;;;;;;5036225;28;20200;-41
2022/11/27 04:38:13;;;;;;;44.50;18.87;;;;;;;;;;5035967;28;20638;-41
2022/11/27 04:40:39;;;;;;;42.57;17.63;;;;;;;;;;5035986;28;20259;-41
2022/11/27 04:43:07;;;;;;;40.17;17.03;;;;;;;;;;5035892;28;20204;-46
2022/11/27 04:45:34;;;;;;;40.93;16.20;;;;;;;;;;5035745;28;20211;-42
2022/11/27 04:48:01;;;;;;;36.70;15.77;;;;;;;;;;5036017;28;20231;-41
2022/11/27 04:50:27;;;;;;;39.43;15.33;;;;;;;;;;5035804;28;20208;-40
2022/11/27 04:52:55;;;;;;;35.80;14.80;;;;;;;;;;5036104;28;20224;-40
2022/11/27 04:55:22;;;;;;;41.60;16.40;;;;;;;;;;5035506;28;20208;-41
2022/11/27 04:57:49;;;;;;;37.53;14.50;;;;;;;;;;5038472;28;20200;-41
2022/11/27 05:00:17;;;;;;;32.67;14.10;;;;;;;;;;5044474;28;20219;-41
2022/11/27 05:02:44;;;;;;;33.53;14.43;;;;;;;;;;5035618;28;20204;-40
2022/11/27 05:05:11;;;;;;;35.80;15.27;;;;;;;;;;5035522;28;20286;-40
2022/11/27 05:07:38;;;;;;;34.67;14.47;;;;;;;;;;5035528;28;20731;-41
2022/11/27 05:10:05;;;;;;;37.33;15.53;;;;;;;;;;5035094;28;20228;-41
2022/11/27 05:12:32;;;;;;;35.87;15.10;;;;;;;;;;5035466;28;20229;-40
2022/11/27 05:14:59;;;;;;;35.27;15.97;;;;;;;;;;5035430;28;20211;-40
2022/11/27 05:17:30;;;;;;;39.33;14.67;;;;;;;;;;5055157;28;20539;-40
2022/11/27 05:19:58;;;;;;;37.40;15.87;;;;;;;;;;5055252;28;20200;-41
2022/11/27 05:22:25;;;;;;;39.60;16.10;;;;;;;;;;5055169;28;20218;-41
2022/11/27 05:24:52;;;;;;;40.17;15.87;;;;;;;;;;5054956;28;20204;-40
2022/11/27 05:27:19;;;;;;;38.97;16.17;;;;;;;;;;5055209;28;20215;-41
2022/11/27 05:29:45;;;;;;;38.30;16.07;;;;;;;;;;5055338;28;20208;-41
2022/11/27 05:32:13;;;;;;;39.07;16.47;;;;;;;;;;5054949;28;20254;-41
2022/11/27 05:34:39;;;;;;;36.13;15.43;;;;;;;;;;5055369;28;20203;-40
2022/11/27 05:37:07;;;;;;;33.27;15.30;;;;;;;;;;5054754;28;20218;-41
2022/11/27 05:39:34;;;;;;;40.00;16.40;;;;;;;;;;5054787;28;20196;-40
2022/11/27 05:42:01;;;;;;;36.03;15.63;;;;;;;;;;5055208;28;20215;-40
2022/11/27 05:44:28;;;;;;;35.60;15.33;;;;;;;;;;5054942;28;20204;-40
2022/11/27 05:46:56;;;;;;;35.37;17.07;;;;;;;;;;5054983;28;20200;-40
2022/11/27 05:49:22;;;;;;;36.97;16.10;;;;;;;;;;5054589;28;20254;-40
2022/11/27 05:51:50;;;;;;;37.00;16.60;;;;;;;;;;5053772;28;20640;-40
2022/11/27 05:54:17;;;;;;;41.27;16.07;;;;;;;;;;5054869;28;20210;-40
2022/11/27 05:56:44;;;;;;;40.97;17.50;;;;;;;;;;5054837;28;20200;-41
2022/11/27 05:59:11;;;;;;;40.73;16.13;;;;;;;;;;5054853;28;20219;-41
2022/11/27 06:01:38;;;;;;;41.50;16.07;;;;;;;;;;5055011;28;20277;-40
2022/11/27 06:04:05;;;;;;;43.23;17.73;;;;;;;;;;5054682;28;20200;-42
2022/11/27 06:06:32;;;;;;;46.87;18.03;;;;;;;;;;5054380;28;20215;-40
2022/11/27 06:08:59;;;;;;;52.53;19.53;;;;;;;;;;5054935;28;20204;-43
2022/11/27 06:11:26;;;;;;;42.53;18.47;;;;;;;;;;5054843;28;20232;-41
2022/11/27 06:13:53;;;;;;;43.90;18.47;;;;;;;;;;5054684;28;20233;-41
2022/11/27 06:16:22;;;;;;;40.13;18.07;;;;;;;;;;5054721;28;20210;-41
2022/11/27 06:18:51;;;;;;;48.00;19.23;;;;;;;;;;5054629;28;20501;-41
2022/11/27 06:21:19;;;;;;;45.97;20.17;;;;;;;;;;5054831;28;20536;-41
2022/11/27 06:23:46;;;;;;;47.17;19.70;;;;;;;;;;5056606;28;20204;-42
2022/11/27 06:26:18;;;;;;;47.67;19.93;;;;;;;;;;5057977;28;20645;-43
2022/11/27 06:28:46;;;;;;;47.80;19.37;;;;;;;;;;5057559;28;20254;-43
2022/11/27 06:31:16;;;;;;;47.50;18.33;;;;;;;;;;5057711;28;20204;-41
2022/11/27 06:33:45;;;;;;;46.37;17.97;;;;;;;;;;5057209;28;20227;-42
2022/11/27 06:36:12;;;;;;;48.33;19.10;;;;;;;;;;5057305;28;20200;-43
2022/11/27 06:38:39;;;;;;;39.20;17.70;;;;;;;;;;5057825;28;20208;-41
2022/11/27 06:41:11;;;;;;;47.87;18.07;;;;;;;;;;5058015;28;20208;-41
2022/11/27 06:43:38;;;;;;;42.50;17.33;;;;;;;;;;5057867;28;20200;-42
2022/11/27 06:46:08;;;;;;;45.20;19.23;;;;;;;;;;5058088;28;20235;-42
2022/11/27 06:48:35;;;;;;;45.63;19.47;;;;;;;;;;5057297;28;20261;-41
2022/11/27 06:51:04;;;;;;;48.77;22.70;;;;;;;;;;5057201;28;20580;-42
2022/11/27 06:53:33;;;;;;;37.53;17.70;;;;;;;;;;5057771;28;20239;-45
2022/11/27 06:56:11;;;;;;;41.83;16.90;;;;;;;;;;5057657;28;20196;-41
2022/11/27 06:58:38;;;;;;;39.00;17.70;;;;;;;;;;5057973;28;20218;-42
2022/11/27 07:01:09;;;;;;;50.73;23.03;;;;;;;;;;5057943;28;20539;-41
2022/11/27 07:03:36;;;;;;;39.20;16.70;;;;;;;;;;5057814;28;20203;-45
2022/11/27 07:06:05;;;;;;;46.97;16.80;;;;;;;;;;5057614;28;20219;-42
2022/11/27 07:08:33;;;;;;;38.33;17.07;;;;;;;;;;5057363;28;20544;-41
2022/11/27 07:11:05;;;;;;;43.93;19.07;;;;;;;;;;5057299;28;20231;-41
2022/11/27 07:13:32;;;;;;;51.27;23.13;;;;;;;;;;5050005;28;20290;-44
2022/11/27 07:16:00;;;;;;;45.80;21.10;;;;;;;;;;5055170;28;20227;-41
2022/11/27 07:18:28;;;;;;;56.27;26.10;;;;;;;;;;5052951;28;20227;-42
2022/11/27 07:20:55;;;;;;;54.00;21.37;;;;;;;;;;5056059;28;20225;-42
2022/11/27 07:23:22;;;;;;;57.17;22.80;;;;;;;;;;5043439;28;20235;-43
2022/11/27 07:25:49;;;;;;;43.57;17.83;;;;;;;;;;5051164;28;23275;-41
2022/11/27 07:28:16;;;;;;;42.57;18.00;;;;;;;;;;5043355;28;20669;-40
2022/11/27 07:30:45;;;;;;;43.27;17.57;;;;;;;;;;5049666;28;20254;-42
2022/11/27 07:33:12;;;;;;;41.70;19.00;;;;;;;;;;5045802;28;20746;-41
2022/11/27 07:35:39;;;;;;;47.30;20.53;;;;;;;;;;5051505;28;20233;-43
2022/11/27 07:38:06;;;;;;;48.73;21.13;;;;;;;;;;5055676;28;20223;-41
2022/11/27 07:40:33;;;;;;;40.37;17.77;;;;;;;;;;5044301;28;20228;-41
2022/11/27 07:43:00;;;;;;;46.97;18.47;;;;;;;;;;5055172;28;20224;-41
2022/11/27 07:45:27;;;;;;;36.20;17.23;;;;;;;;;;5054706;28;20269;-41
2022/11/27 07:47:54;;;;;;;41.97;18.13;;;;;;;;;;5054191;28;20238;-45
2022/11/27 07:50:21;;;;;;;44.47;19.73;;;;;;;;;;5054779;28;20240;-44
2022/11/27 07:52:48;;;;;;;62.47;22.80;;;;;;;;;;5055402;28;20235;-45
2022/11/27 07:55:15;;;;;;;47.37;20.70;;;;;;;;;;5055171;28;20220;-45
2022/11/27 07:57:42;;;;;;;48.13;19.83;;;;;;;;;;5054815;28;20228;-45
2022/11/27 08:00:10;;;;;;;46.20;19.67;;;;;;;;;;5044067;28;20228;-45
2022/11/27 08:02:37;;;;;;;51.13;19.83;;;;;;;;;;5046000;28;20216;-44
2022/11/27 08:05:04;;;;;;;49.63;20.80;;;;;;;;;;5044622;28;20239;-46
2022/11/27 08:07:38;;;;;;;42.90;18.80;;;;;;;;;;5044288;28;20220;-45
2022/11/27 08:10:06;;;;;;;43.70;18.90;;;;;;;;;;5047922;28;20605;-44
2022/11/27 08:12:33;;;;;;;43.27;19.53;;;;;;;;;;5055113;28;20293;-43
2022/11/27 08:15:00;;;;;;;44.63;20.67;;;;;;;;;;5055147;28;20255;-45
2022/11/27 08:17:27;;;;;;;46.60;19.23;;;;;;;;;;5055351;28;20220;-43
2022/11/27 08:19:54;;;;;;;41.13;17.93;;;;;;;;;;5055162;28;20230;-45
2022/11/27 08:22:21;;;;;;;41.43;18.87;;;;;;;;;;5048791;28;20223;-45
2022/11/27 08:24:50;;;;;;;50.73;20.83;;;;;;;;;;5035104;28;20228;-44
2022/11/27 08:27:17;;;;;;;46.40;19.17;;;;;;;;;;5035172;28;20216;-43
2022/11/27 08:29:44;;;;;;;41.20;18.37;;;;;;;;;;5054185;28;20513;-43
2022/11/27 08:32:11;;;;;;;39.53;18.30;;;;;;;;;;5054955;28;20228;-44
2022/11/27 08:34:38;;;;;;;42.97;18.87;;;;;;;;;;5054613;28;20232;-44
2022/11/27 08:37:06;;;;;;;40.93;17.87;;;;;;;;;;5054972;28;20718;-46
2022/11/27 08:39:33;;;;;;;43.13;18.23;;;;;;;;;;5054841;28;20298;-44
2022/11/27 08:42:00;;;;;;;39.30;18.43;;;;;;;;;;5054740;28;20548;-43
2022/11/27 08:44:27;;;;;;;37.93;17.87;;;;;;;;;;5055053;28;20239;-43
2022/11/27 08:46:53;;;;;;;40.80;17.73;;;;;;;;;;5045526;28;20233;-43
2022/11/27 08:49:20;;;;;;;43.60;19.43;;;;;;;;;;5047133;28;20224;-47
2022/11/27 08:51:47;;;;;;;44.17;19.17;;;;;;;;;;5052489;28;20541;-46
2022/11/27 08:54:15;;;;;;;46.77;18.83;;;;;;;;;;5053959;28;20243;-46
2022/11/27 08:56:41;;;;;;;44.23;19.53;;;;;;;;;;5044472;28;20216;-49
2022/11/27 08:59:09;;;;;;;40.70;18.73;;;;;;;;;;5045675;28;20212;-45
2022/11/27 09:01:36;;;;;;;41.00;19.87;;;;;;;;;;5047673;28;20278;-45
2022/11/27 09:04:03;;;;;;;42.50;19.47;;;;;;;;;;5045535;28;20669;-45
2022/11/27 09:06:33;;;;;;;42.73;18.63;;;;;;;;;;5037223;28;20312;-45
2022/11/27 09:09:03;;;;;;;41.23;18.37;;;;;;;;;;5045775;28;20220;-45
2022/11/27 09:11:30;;;;;;;42.70;19.03;;;;;;;;;;5054837;28;20305;-45
2022/11/27 09:13:59;;;;;;;41.50;18.53;;;;;;;;;;5047665;28;20244;-43
2022/11/27 09:16:26;;;;;;;41.83;18.53;;;;;;;;;;5053277;28;20598;-44
2022/11/27 09:18:54;;;;;;;38.87;18.00;;;;;;;;;;5053001;28;20216;-44
2022/11/27 09:21:25;;;;;;;40.93;18.30;;;;;;;;;;5044770;28;20274;-43
2022/11/27 09:23:54;;;;;;;40.27;16.93;;;;;;;;;;5053528;28;20673;-46
2022/11/27 09:26:22;;;;;;;40.30;17.50;;;;;;;;;;5054244;28;20315;-44
2022/11/27 09:28:51;;;;;;;41.93;17.63;;;;;;;;;;5053357;28;20287;-44
2022/11/27 09:31:19;;;;;;;42.53;19.80;;;;;;;;;;5054165;28;20736;-44
2022/11/27 09:33:46;;;;;;;48.27;22.83;;;;;;;;;;5053391;28;20642;-43
2022/11/27 09:36:22;;;;;;;44.30;21.00;;;;;;;;;;5053865;28;20228;-43
2022/11/27 09:38:49;;;;;;;48.20;20.43;;;;;;;;;;5053698;28;20219;-46
2022/11/27 09:41:50;;;;;;;58.10;27.37;;;;;;;;;;5049373;28;20220;-47
2022/11/27 09:44:28;;;;;;;46.47;21.43;;;;;;;;;;5050777;28;20235;-44
2022/11/27 09:46:59;;;;;;;44.13;22.13;;;;;;;;;;5052752;28;20216;-45
2022/11/27 09:49:35;;;;;;;55.07;23.93;;;;;;;;;;5052921;28;20226;-44
2022/11/27 09:52:12;;;;;;;55.97;24.00;;;;;;;;;;5053284;28;20721;-45
2022/11/27 09:54:55;;;;;;;48.70;20.77;;;;;;;;;;5053685;28;20361;-45
2022/11/27 09:57:32;;;;;;;45.47;22.00;;;;;;;;;;5052861;28;20230;-44
2022/11/27 10:00:11;;;;;;;33.50;17.03;;;;;;;;;;5052547;28;20234;-45
2022/11/27 10:02:40;;;;;;;37.10;16.47;;;;;;;;;;5053349;28;20215;-45
2022/11/27 10:05:20;;;;;;;36.13;16.93;;;;;;;;;;5052131;28;20250;-44
2022/11/27 10:07:50;;;;;;;36.63;17.70;;;;;;;;;;5053486;28;20656;-45
2022/11/27 10:10:55;;;;;;;38.80;17.03;;;;;;;;;;5052032;28;20240;-44
2022/11/27 10:13:40;;;;;;;43.60;19.70;;;;;;;;;;5052895;28;20231;-45
2022/11/27 10:16:21;;;;;;;44.70;20.70;;;;;;;;;;5038924;28;20224;-44
2022/11/27 10:18:58;;;;;;;38.70;16.97;;;;;;;;;;5043057;28;20262;-44
2022/11/27 10:21:40;;;;;;;39.70;16.37;;;;;;;;;;5042552;28;20246;-43
2022/11/27 10:24:25;;;;;;;36.20;16.50;;;;;;;;;;5044318;28;20212;-44
2022/11/27 10:26:56;;;;;;;32.07;14.67;;;;;;;;;;5044343;28;20241;-45
2022/11/27 10:29:32;;;;;;;31.13;15.33;;;;;;;;;;5046050;28;20212;-44
2022/11/27 10:32:04;;;;;;;32.00;15.07;;;;;;;;;;5042472;28;20750;-44
2022/11/27 10:34:47;;;;;;;32.40;15.03;;;;;;;;;;5047304;28;20539;-44
2022/11/27 10:37:22;;;;;;;32.50;14.80;;;;;;;;;;5032660;28;20358;-44
2022/11/27 10:40:04;;;;;;;37.10;16.40;;;;;;;;;;5040171;28;20223;-45
2022/11/27 10:42:34;;;;;;;33.30;16.13;;;;;;;;;;5040705;28;20227;-46
2022/11/27 10:45:06;;;;;;;25.47;12.90;;;;;;;;;;5043473;28;20633;-46
2022/11/27 10:47:33;;;;;;;36.43;15.63;;;;;;;;;;5039328;28;20221;-45
2022/11/27 10:50:00;;;;;;;49.53;17.00;;;;;;;;;;5035466;28;20312;-46
2022/11/27 10:52:28;;;;;;;32.33;14.90;;;;;;;;;;5048696;28;20220;-45
2022/11/27 10:55:02;;;;;;;38.27;15.53;;;;;;;;;;5039337;28;20255;-44
2022/11/27 10:58:02;;;;;;;37.00;16.33;;;;;;;;;;5047977;28;20220;-45
2022/11/27 11:00:29;;;;;;;32.13;15.13;;;;;;;;;;5045806;28;20315;-48
2022/11/27 11:03:04;;;;;;;39.87;16.73;;;;;;;;;;5039653;28;20225;-42
2022/11/27 11:05:33;;;;;;;39.67;16.57;;;;;;;;;;5050422;28;20258;-43
2022/11/27 11:08:21;;;;;;;31.43;14.63;;;;;;;;;;5052313;28;20224;-45
2022/11/27 11:10:56;;;;;;;36.47;17.40;;;;;;;;;;5055104;28;20239;-45
2022/11/27 11:13:27;;;;;;;38.80;19.90;;;;;;;;;;5055484;28;20239;-46
2022/11/27 11:16:05;;;;;;;45.40;22.60;;;;;;;;;;5054914;28;20739;-45
2022/11/27 11:18:41;;;;;;;39.17;16.77;;;;;;;;;;5037509;28;20217;-46
2022/11/27 11:21:26;;;;;;;40.33;17.80;;;;;;;;;;5056545;28;20220;-44
2022/11/27 11:24:05;;;;;;;40.90;16.77;;;;;;;;;;5048523;28;20228;-44
2022/11/27 11:26:36;;;;;;;35.00;16.60;;;;;;;;;;5046645;28;20219;-43
2022/11/27 11:29:06;;;;;;;30.43;15.00;;;;;;;;;;5051280;28;20232;-44
2022/11/27 11:31:36;;;;;;;30.60;14.13;;;;;;;;;;5055100;28;20227;-45
2022/11/27 11:34:13;;;;;;;33.40;14.43;;;;;;;;;;5055856;28;20227;-43
2022/11/27 11:36:40;;;;;;;34.07;14.90;;;;;;;;;;5049874;28;20561;-46
2022/11/27 11:39:19;;;;;;;51.87;23.83;;;;;;;;;;5039729;28;20212;-44
2022/11/27 11:41:46;;;;;;;51.73;27.83;;;;;;;;;;5053422;28;20247;-45
2022/11/27 11:44:22;;;;;;;30.37;15.50;;;;;;;;;;5054382;28;20242;-43
2022/11/27 11:46:51;;;;;;;36.23;15.37;;;;;;;;;;5049023;28;20550;-42
2022/11/27 11:49:26;;;;;;;36.70;15.57;;;;;;;;;;5051569;28;20216;-42
2022/11/27 11:52:08;;;;;;;40.20;16.27;;;;;;;;;;5036070;28;20234;-44
2022/11/27 11:54:59;;;;;;;36.73;15.37;;;;;;;;;;5035384;28;20232;-43
2022/11/27 11:57:32;;;;;;;35.37;15.03;;;;;;;;;;5051379;28;20242;-44
2022/11/27 12:00:10;;;;;;;29.70;14.77;;;;;;;;;;5054063;28;20250;-42
2022/11/27 12:02:57;;;;;;;34.03;14.93;;;;;;;;;;5052983;28;20311;-47
2022/11/27 12:05:33;;;;;;;30.33;14.73;;;;;;;;;;5053732;28;20240;-44
2022/11/27 12:08:38;;;;;;;36.40;15.43;;;;;;;;;;5054341;28;20618;-42
2022/11/27 12:11:15;;;;;;;44.57;20.33;;;;;;;;;;5054215;28;20305;-44
2022/11/27 12:13:52;;;;;;;29.00;14.37;;;;;;;;;;5054906;28;20289;-44
2022/11/27 12:16:33;;;;;;;31.03;14.93;;;;;;;;;;5054323;28;20216;-42
2022/11/27 12:19:30;;;;;;;40.23;15.20;;;;;;;;;;5054595;28;20238;-41
2022/11/27 12:22:05;;;;;;;37.33;15.30;;;;;;;;;;5054701;28;20546;-42
2022/11/27 12:24:47;;;;;;;38.37;16.20;;;;;;;;;;5054281;28;20226;-42
2022/11/27 12:27:44;;;;;;;38.77;16.00;;;;;;;;;;5052103;28;20307;-42
2022/11/27 12:30:20;;;;;;;30.13;13.73;;;;;;;;;;5018706;28;20215;-42
2022/11/27 12:33:08;;;;;;;32.13;14.57;;;;;;;;;;5021000;28;20273;-43
2022/11/27 12:35:52;;;;;;;25.97;13.23;;;;;;;;;;5054716;28;20240;-42
2022/11/27 12:38:41;;;;;;;30.40;12.53;;;;;;;;;;5054291;28;20301;-42
2022/11/27 12:41:31;;;;;;;37.47;26.37;;;;;;;;;;5054814;28;20248;-42
2022/11/27 12:44:01;;;;;;;30.37;16.80;;;;;;;;;;5053687;28;20224;-42
2022/11/27 12:46:48;;;;;;;28.10;13.80;;;;;;;;;;5055035;28;20569;-42
2022/11/27 12:49:45;;;;;;;59.63;19.53;;;;;;;;;;5054144;28;20228;-42
2022/11/27 12:52:18;;;;;;;37.67;14.00;;;;;;;;;;5053789;28;20220;-44
2022/11/27 12:54:53;;;;;;;31.87;14.60;;;;;;;;;;5052786;28;20227;-44
2022/11/27 12:57:38;;;;;;;35.37;15.40;;;;;;;;;;5036309;28;20223;-42
2022/11/27 13:00:23;;;;;;;33.43;14.73;;;;;;;;;;5033985;28;20567;-43
2022/11/27 13:03:02;;;;;;;30.07;13.03;;;;;;;;;;5034719;28;20267;-42
2022/11/27 13:05:33;;;;;;;40.53;15.93;;;;;;;;;;5034152;28;20240;-43
2022/11/27 13:08:05;;;;;;;30.93;13.60;;;;;;;;;;5033419;28;20263;-44
2022/11/27 13:10:51;;;;;;;38.90;19.33;;;;;;;;;;5034629;28;20232;-42
2022/11/27 13:13:33;;;;;;;34.63;18.23;;;;;;;;;;5033861;28;20224;-43
2022/11/27 13:16:24;;;;;;;33.57;17.17;;;;;;;;;;5034034;28;20247;-43
2022/11/27 13:18:55;;;;;;;30.57;13.83;;;;;;;;;;5033582;28;20228;-42
2022/11/27 13:21:26;;;;;;;30.30;13.53;;;;;;;;;;5033908;28;20232;-43
2022/11/27 13:23:53;;;;;;;33.30;14.13;;;;;;;;;;5034497;28;20224;-42
2022/11/27 13:26:26;;;;;;;28.63;14.80;;;;;;;;;;5033729;28;20552;-42
2022/11/27 13:28:58;;;;;;;30.40;13.97;;;;;;;;;;5033277;28;20225;-42
2022/11/27 13:31:30;;;;;;;34.13;14.47;;;;;;;;;;5034564;28;20567;-42
2022/11/27 13:33:59;;;;;;;28.87;13.87;;;;;;;;;;5034205;28;20347;-42
2022/11/27 13:36:31;;;;;;;30.93;14.13;;;;;;;;;;5033837;28;20229;-42
2022/11/27 13:39:02;;;;;;;48.70;21.60;;;;;;;;;;5032996;28;20231;-43
2022/11/27 13:41:42;;;;;;;34.23;18.80;;;;;;;;;;5034304;28;20279;-42
2022/11/27 13:44:24;;;;;;;30.63;14.83;;;;;;;;;;5042404;28;20661;-45
2022/11/27 13:46:53;;;;;;;34.43;14.87;;;;;;;;;;5052595;28;20235;-46
2022/11/27 13:49:32;;;;;;;36.47;15.90;;;;;;;;;;5052857;28;20255;-42
2022/11/27 13:52:13;;;;;;;34.83;15.90;;;;;;;;;;5053674;28;20234;-44
2022/11/27 13:54:57;;;;;;;36.40;16.80;;;;;;;;;;5050303;28;20501;-46
2022/11/27 13:57:25;;;;;;;41.23;18.83;;;;;;;;;;5052131;28;20235;-44
2022/11/27 14:00:06;;;;;;;45.37;19.33;;;;;;;;;;5053391;28;20595;-42
2022/11/27 14:02:43;;;;;;;46.00;20.60;;;;;;;;;;5052637;28;20238;-48
2022/11/27 14:05:11;;;;;;;150.10;71.90;;;;;;;;;;5053460;28;20224;-44
2022/11/27 14:07:58;;;;;;;245.80;126.40;;;;;;;;;;5053793;28;20216;-45
2022/11/27 14:10:27;;;;;;;62.40;34.83;;;;;;;;;;5047967;28;20290;-43
2022/11/27 14:13:05;;;;;;;56.90;27.33;;;;;;;;;;5043399;28;20222;-45
2022/11/27 14:15:34;;;;;;;52.20;25.33;;;;;;;;;;5047002;28;20660;-46
2022/11/27 14:18:12;;;;;;;45.77;22.03;;;;;;;;;;5047576;28;20212;-44
2022/11/27 14:20:50;;;;;;;50.67;22.00;;;;;;;;;;5045724;28;20273;-45
2022/11/27 14:23:32;;;;;;;59.17;24.57;;;;;;;;;;5042650;28;20224;-50
2022/11/27 14:26:20;;;;;;;50.77;22.77;;;;;;;;;;5036164;28;20248;-44
2022/11/27 14:28:50;;;;;;;54.60;23.53;;;;;;;;;;5035170;28;20236;-45
2022/11/27 14:31:22;;;;;;;43.03;19.90;;;;;;;;;;5053418;28;20228;-44
2022/11/27 14:33:49;;;;;;;37.37;17.73;;;;;;;;;;5052297;28;20220;-45
2022/11/27 14:36:36;;;;;;;51.83;22.33;;;;;;;;;;5042872;28;20681;-45
2022/11/27 14:39:03;;;;;;;75.73;33.00;;;;;;;;;;5042030;28;20227;-48
2022/11/27 14:41:30;;;;;;;47.37;25.63;;;;;;;;;;5045747;28;20282;-45
2022/11/27 14:44:03;;;;;;;50.33;22.20;;;;;;;;;;5048888;28;20231;-44